sensor_id;sensor_type;location;lat;lon;timestamp;temperature;humidity
14140;DHT22;7150;53.514;9.988;2023-09-18T00:01:48;20.20;99.90
14140;DHT22;7150;53.514;9.988;2023-09-18T00:04:13;20.20;99.90
14140;DHT22;7150;53.514;9.988;2023-09-18T00:06:39;20.20;99.90
14140;DHT22;7150;53.514;9.988;2023-09-18T00:09:05;20.20;99.90
14140;DHT22;7150;53.514;9.988;2023-09-18T00:11:32;20.20;99.90
14140;DHT22;7150;53.514;9.988;2023-09-18T00:13:57;20.20;99.90
14140;DHT22;7150;53.514;9.988;2023-09-18T00:16:23;20.20;99.90
14140;DHT22;7150;53.514;9.988;2023-09-18T00:18:50;20.10;99.90
14140;DHT22;7150;53.514;9.988;2023-09-18T00:21:15;20.10;99.90
14140;DHT22;7150;53.514;9.988;2023-09-18T00:23:41;20.10;99.90
14140;DHT22;7150;53.514;9.988;2023-09-18T00:26:07;20.10;99.90
14140;DHT22;7150;53.514;9.988;2023-09-18T00:28:33;20.10;99.90
14140;DHT22;7150;53.514;9.988;2023-09-18T00:30:58;20.10;99.90
14140;DHT22;7150;53.514;9.988;2023-09-18T00:33:24;20.10;99.90
14140;DHT22;7150;53.514;9.988;2023-09-18T00:35:50;20.10;99.90
14140;DHT22;7150;53.514;9.988;2023-09-18T00:38:16;20.10;99.90
14140;DHT22;7150;53.514;9.988;2023-09-18T00:40:42;20.10;99.90
14140;DHT22;7150;53.514;9.988;2023-09-18T00:43:08;20.00;99.90
14140;DHT22;7150;53.514;9.988;2023-09-18T00:45:38;20.00;99.90
14140;DHT22;7150;53.514;9.988;2023-09-18T00:48:05;20.00;99.90
14140;DHT22;7150;53.514;9.988;2023-09-18T00:50:31;20.00;99.90
14140;DHT22;7150;53.514;9.988;2023-09-18T00:52:57;20.00;99.90
14140;DHT22;7150;53.514;9.988;2023-09-18T00:55:23;20.00;99.90
14140;DHT22;7150;53.514;9.988;2023-09-18T00:57:48;20.00;99.90
14140;DHT22;7150;53.514;9.988;2023-09-18T01:00:14;20.00;99.90
14140;DHT22;7150;53.514;9.988;2023-09-18T01:02:43;20.00;99.90
14140;DHT22;7150;53.514;9.988;2023-09-18T01:05:10;20.00;99.90
14140;DHT22;7150;53.514;9.988;2023-09-18T01:07:36;20.00;99.90
14140;DHT22;7150;53.514;9.988;2023-09-18T01:10:02;20.00;99.90
14140;DHT22;7150;53.514;9.988;2023-09-18T01:12:45;20.00;99.90
14140;DHT22;7150;53.514;9.988;2023-09-18T01:15:17;20.00;99.90
14140;DHT22;7150;53.514;9.988;2023-09-18T01:17:44;20.00;99.90
14140;DHT22;7150;53.514;9.988;2023-09-18T01:20:11;20.00;99.90
14140;DHT22;7150;53.514;9.988;2023-09-18T01:22:36;20.00;99.90
14140;DHT22;7150;53.514;9.988;2023-09-18T01:25:02;19.90;99.90
14140;DHT22;7150;53.514;9.988;2023-09-18T01:27:28;19.90;99.90
14140;DHT22;7150;53.514;9.988;2023-09-18T01:29:53;20.00;99.90
14140;DHT22;7150;53.514;9.988;2023-09-18T01:32:19;19.90;99.90
14140;DHT22;7150;53.514;9.988;2023-09-18T01:34:49;19.90;99.90
14140;DHT22;7150;53.514;9.988;2023-09-18T01:37:20;19.90;99.90
14140;DHT22;7150;53.514;9.988;2023-09-18T01:39:48;19.90;99.90
14140;DHT22;7150;53.514;9.988;2023-09-18T01:42:14;19.90;99.90
14140;DHT22;7150;53.514;9.988;2023-09-18T01:44:41;19.90;99.90
14140;DHT22;7150;53.514;9.988;2023-09-18T01:47:10;19.90;99.90
14140;DHT22;7150;53.514;9.988;2023-09-18T01:49:38;19.90;99.90
14140;DHT22;7150;53.514;9.988;2023-09-18T01:52:06;19.90;99.90
14140;DHT22;7150;53.514;9.988;2023-09-18T01:54:33;19.90;99.90
14140;DHT22;7150;53.514;9.988;2023-09-18T01:56:59;19.90;99.90
14140;DHT22;7150;53.514;9.988;2023-09-18T01:59:25;19.90;99.90
14140;DHT22;7150;53.514;9.988;2023-09-18T02:01:52;19.80;99.90
14140;DHT22;7150;53.514;9.988;2023-09-18T02:04:18;19.80;99.90
14140;DHT22;7150;53.514;9.988;2023-09-18T02:06:44;19.80;99.90
14140;DHT22;7150;53.514;9.988;2023-09-18T02:09:10;19.80;99.90
14140;DHT22;7150;53.514;9.988;2023-09-18T02:11:38;19.80;99.90
14140;DHT22;7150;53.514;9.988;2023-09-18T02:14:04;19.80;99.90
14140;DHT22;7150;53.514;9.988;2023-09-18T02:16:32;19.80;99.90
14140;DHT22;7150;53.514;9.988;2023-09-18T02:18:57;19.70;99.90
14140;DHT22;7150;53.514;9.988;2023-09-18T02:21:23;19.70;99.90
14140;DHT22;7150;53.514;9.988;2023-09-18T02:23:53;19.70;99.90
14140;DHT22;7150;53.514;9.988;2023-09-18T02:26:19;19.70;99.90
14140;DHT22;7150;53.514;9.988;2023-09-18T02:28:44;19.70;99.90
14140;DHT22;7150;53.514;9.988;2023-09-18T02:31:10;19.70;99.90
14140;DHT22;7150;53.514;9.988;2023-09-18T02:33:37;19.70;99.90
14140;DHT22;7150;53.514;9.988;2023-09-18T02:36:03;19.70;99.90
14140;DHT22;7150;53.514;9.988;2023-09-18T02:38:28;19.70;99.90
14140;DHT22;7150;53.514;9.988;2023-09-18T02:40:55;19.70;99.90
14140;DHT22;7150;53.514;9.988;2023-09-18T02:43:22;19.70;99.90
14140;DHT22;7150;53.514;9.988;2023-09-18T02:45:48;19.70;99.90
14140;DHT22;7150;53.514;9.988;2023-09-18T02:48:13;19.70;99.90
14140;DHT22;7150;53.514;9.988;2023-09-18T02:50:39;19.70;99.90
14140;DHT22;7150;53.514;9.988;2023-09-18T02:53:06;19.60;99.90
14140;DHT22;7150;53.514;9.988;2023-09-18T02:55:32;19.60;99.90
14140;DHT22;7150;53.514;9.988;2023-09-18T02:57:57;19.70;99.90
14140;DHT22;7150;53.514;9.988;2023-09-18T03:00:23;19.60;99.90
14140;DHT22;7150;53.514;9.988;2023-09-18T03:02:48;19.60;99.90
14140;DHT22;7150;53.514;9.988;2023-09-18T03:05:14;19.60;99.90
14140;DHT22;7150;53.514;9.988;2023-09-18T03:07:39;19.60;99.90
14140;DHT22;7150;53.514;9.988;2023-09-18T03:10:05;19.60;99.90
14140;DHT22;7150;53.514;9.988;2023-09-18T03:12:31;19.60;99.90
14140;DHT22;7150;53.514;9.988;2023-09-18T03:14:57;19.60;99.90
14140;DHT22;7150;53.514;9.988;2023-09-18T03:17:22;19.60;99.90
14140;DHT22;7150;53.514;9.988;2023-09-18T03:19:48;19.50;99.90
14140;DHT22;7150;53.514;9.988;2023-09-18T03:22:14;19.60;99.90
14140;DHT22;7150;53.514;9.988;2023-09-18T03:24:40;19.60;99.90
14140;DHT22;7150;53.514;9.988;2023-09-18T03:27:05;19.60;99.90
14140;DHT22;7150;53.514;9.988;2023-09-18T03:29:31;19.60;99.90
14140;DHT22;7150;53.514;9.988;2023-09-18T03:31:56;19.60;99.90
14140;DHT22;7150;53.514;9.988;2023-09-18T03:34:23;19.60;99.90
14140;DHT22;7150;53.514;9.988;2023-09-18T03:36:52;19.60;99.90
14140;DHT22;7150;53.514;9.988;2023-09-18T03:39:18;19.60;99.90
14140;DHT22;7150;53.514;9.988;2023-09-18T03:41:43;19.60;99.90
14140;DHT22;7150;53.514;9.988;2023-09-18T03:44:09;19.50;99.90
14140;DHT22;7150;53.514;9.988;2023-09-18T03:46:35;19.50;99.90
14140;DHT22;7150;53.514;9.988;2023-09-18T03:49:01;19.50;99.90
14140;DHT22;7150;53.514;9.988;2023-09-18T03:51:26;19.50;99.90
14140;DHT22;7150;53.514;9.988;2023-09-18T03:53:52;19.50;99.90
14140;DHT22;7150;53.514;9.988;2023-09-18T03:56:18;19.50;99.90
14140;DHT22;7150;53.514;9.988;2023-09-18T03:58:43;19.50;99.90
14140;DHT22;7150;53.514;9.988;2023-09-18T04:01:12;19.50;99.90
14140;DHT22;7150;53.514;9.988;2023-09-18T04:03:37;19.50;99.90
14140;DHT22;7150;53.514;9.988;2023-09-18T04:06:03;19.50;99.90
14140;DHT22;7150;53.514;9.988;2023-09-18T04:08:28;19.40;99.90
14140;DHT22;7150;53.514;9.988;2023-09-18T04:10:55;19.40;99.90
14140;DHT22;7150;53.514;9.988;2023-09-18T04:13:21;19.40;99.90
14140;DHT22;7150;53.514;9.988;2023-09-18T04:15:46;19.50;99.90
14140;DHT22;7150;53.514;9.988;2023-09-18T04:18:12;19.50;99.90
14140;DHT22;7150;53.514;9.988;2023-09-18T04:20:37;19.40;99.90
14140;DHT22;7150;53.514;9.988;2023-09-18T04:25:45;19.40;99.90
14140;DHT22;7150;53.514;9.988;2023-09-18T04:28:12;19.40;99.90
14140;DHT22;7150;53.514;9.988;2023-09-18T04:30:38;19.40;99.90
14140;DHT22;7150;53.514;9.988;2023-09-18T04:33:03;19.30;99.90
14140;DHT22;7150;53.514;9.988;2023-09-18T04:35:29;19.40;99.90
14140;DHT22;7150;53.514;9.988;2023-09-18T04:37:56;19.30;99.90
14140;DHT22;7150;53.514;9.988;2023-09-18T04:40:22;19.30;99.90
14140;DHT22;7150;53.514;9.988;2023-09-18T04:42:49;19.30;99.90
14140;DHT22;7150;53.514;9.988;2023-09-18T04:45:14;19.30;99.90
14140;DHT22;7150;53.514;9.988;2023-09-18T04:47:41;19.30;99.90
14140;DHT22;7150;53.514;9.988;2023-09-18T04:50:07;19.30;99.90
14140;DHT22;7150;53.514;9.988;2023-09-18T04:52:35;19.20;99.90
14140;DHT22;7150;53.514;9.988;2023-09-18T04:55:00;19.20;99.90
14140;DHT22;7150;53.514;9.988;2023-09-18T04:57:26;19.30;99.90
14140;DHT22;7150;53.514;9.988;2023-09-18T04:59:52;19.20;99.90
14140;DHT22;7150;53.514;9.988;2023-09-18T05:02:17;19.20;99.90
14140;DHT22;7150;53.514;9.988;2023-09-18T05:04:43;19.20;99.90
14140;DHT22;7150;53.514;9.988;2023-09-18T05:07:08;19.20;99.90
14140;DHT22;7150;53.514;9.988;2023-09-18T05:09:34;19.20;99.90
14140;DHT22;7150;53.514;9.988;2023-09-18T05:12:00;19.20;99.90
14140;DHT22;7150;53.514;9.988;2023-09-18T05:14:26;19.20;99.90
14140;DHT22;7150;53.514;9.988;2023-09-18T05:16:51;19.20;99.90
14140;DHT22;7150;53.514;9.988;2023-09-18T05:19:17;19.20;99.90
14140;DHT22;7150;53.514;9.988;2023-09-18T05:21:43;19.20;99.90
14140;DHT22;7150;53.514;9.988;2023-09-18T05:24:08;19.20;99.90
14140;DHT22;7150;53.514;9.988;2023-09-18T05:26:34;19.20;99.90
14140;DHT22;7150;53.514;9.988;2023-09-18T05:28:59;19.20;99.90
14140;DHT22;7150;53.514;9.988;2023-09-18T05:31:25;19.20;99.90
14140;DHT22;7150;53.514;9.988;2023-09-18T05:33:51;19.20;99.90
14140;DHT22;7150;53.514;9.988;2023-09-18T05:36:16;19.30;99.90
14140;DHT22;7150;53.514;9.988;2023-09-18T05:38:42;19.30;99.90
14140;DHT22;7150;53.514;9.988;2023-09-18T05:41:08;19.30;99.90
14140;DHT22;7150;53.514;9.988;2023-09-18T05:43:35;19.20;99.90
14140;DHT22;7150;53.514;9.988;2023-09-18T05:46:01;19.30;99.90
14140;DHT22;7150;53.514;9.988;2023-09-18T05:48:27;19.30;99.90
14140;DHT22;7150;53.514;9.988;2023-09-18T05:50:52;19.30;99.90
14140;DHT22;7150;53.514;9.988;2023-09-18T05:53:20;19.30;99.90
14140;DHT22;7150;53.514;9.988;2023-09-18T05:55:45;19.30;99.90
14140;DHT22;7150;53.514;9.988;2023-09-18T05:58:11;19.40;99.90
14140;DHT22;7150;53.514;9.988;2023-09-18T06:00:36;19.40;99.90
14140;DHT22;7150;53.514;9.988;2023-09-18T06:03:02;19.40;99.90
14140;DHT22;7150;53.514;9.988;2023-09-18T06:05:28;19.40;99.90
14140;DHT22;7150;53.514;9.988;2023-09-18T06:07:56;19.40;99.90
14140;DHT22;7150;53.514;9.988;2023-09-18T06:10:21;19.50;99.90
14140;DHT22;7150;53.514;9.988;2023-09-18T06:12:47;19.40;99.90
14140;DHT22;7150;53.514;9.988;2023-09-18T06:15:13;19.50;99.90
14140;DHT22;7150;53.514;9.988;2023-09-18T06:17:40;19.50;99.90
14140;DHT22;7150;53.514;9.988;2023-09-18T06:20:07;19.50;99.90
14140;DHT22;7150;53.514;9.988;2023-09-18T06:22:35;19.50;99.90
14140;DHT22;7150;53.514;9.988;2023-09-18T06:25:02;19.60;99.90
14140;DHT22;7150;53.514;9.988;2023-09-18T06:27:27;19.60;99.90
14140;DHT22;7150;53.514;9.988;2023-09-18T06:29:53;19.60;99.90
14140;DHT22;7150;53.514;9.988;2023-09-18T06:32:18;19.60;99.90
14140;DHT22;7150;53.514;9.988;2023-09-18T06:34:44;19.60;99.90
14140;DHT22;7150;53.514;9.988;2023-09-18T06:37:10;19.70;99.90
14140;DHT22;7150;53.514;9.988;2023-09-18T06:39:38;19.70;99.90
14140;DHT22;7150;53.514;9.988;2023-09-18T06:42:04;19.70;99.90
14140;DHT22;7150;53.514;9.988;2023-09-18T06:44:29;19.80;99.90
14140;DHT22;7150;53.514;9.988;2023-09-18T06:46:55;19.80;99.90
14140;DHT22;7150;53.514;9.988;2023-09-18T06:49:21;19.80;99.90
14140;DHT22;7150;53.514;9.988;2023-09-18T06:51:46;19.80;99.90
14140;DHT22;7150;53.514;9.988;2023-09-18T06:54:12;19.80;99.90
14140;DHT22;7150;53.514;9.988;2023-09-18T06:56:37;19.90;99.90
14140;DHT22;7150;53.514;9.988;2023-09-18T06:59:03;19.90;99.90
14140;DHT22;7150;53.514;9.988;2023-09-18T07:01:28;19.90;99.90
14140;DHT22;7150;53.514;9.988;2023-09-18T07:03:55;19.90;99.90
14140;DHT22;7150;53.514;9.988;2023-09-18T07:06:21;19.90;99.90
14140;DHT22;7150;53.514;9.988;2023-09-18T07:08:47;19.90;99.90
14140;DHT22;7150;53.514;9.988;2023-09-18T07:11:15;19.90;99.90
14140;DHT22;7150;53.514;9.988;2023-09-18T07:13:41;19.90;99.90
14140;DHT22;7150;53.514;9.988;2023-09-18T07:16:07;20.00;99.90
14140;DHT22;7150;53.514;9.988;2023-09-18T07:18:33;20.00;99.90
14140;DHT22;7150;53.514;9.988;2023-09-18T07:20:58;20.00;99.90
14140;DHT22;7150;53.514;9.988;2023-09-18T07:23:23;20.00;99.90
14140;DHT22;7150;53.514;9.988;2023-09-18T07:25:49;20.10;99.90
14140;DHT22;7150;53.514;9.988;2023-09-18T07:28:15;20.30;99.90
14140;DHT22;7150;53.514;9.988;2023-09-18T07:30:43;20.10;99.90
14140;DHT22;7150;53.514;9.988;2023-09-18T07:33:10;20.20;99.90
14140;DHT22;7150;53.514;9.988;2023-09-18T07:35:35;20.20;99.90
14140;DHT22;7150;53.514;9.988;2023-09-18T07:38:01;20.30;99.90
14140;DHT22;7150;53.514;9.988;2023-09-18T07:40:26;20.30;99.90
14140;DHT22;7150;53.514;9.988;2023-09-18T07:42:52;20.30;99.90
14140;DHT22;7150;53.514;9.988;2023-09-18T07:45:18;20.30;99.90
14140;DHT22;7150;53.514;9.988;2023-09-18T07:47:43;20.40;99.90
14140;DHT22;7150;53.514;9.988;2023-09-18T07:50:09;20.40;99.90
14140;DHT22;7150;53.514;9.988;2023-09-18T07:52:35;20.40;99.90
14140;DHT22;7150;53.514;9.988;2023-09-18T07:55:01;20.50;99.90
14140;DHT22;7150;53.514;9.988;2023-09-18T07:57:27;20.50;99.90
14140;DHT22;7150;53.514;9.988;2023-09-18T07:59:58;20.50;99.90
14140;DHT22;7150;53.514;9.988;2023-09-18T08:02:24;20.50;99.90
14140;DHT22;7150;53.514;9.988;2023-09-18T08:04:50;20.50;99.90
14140;DHT22;7150;53.514;9.988;2023-09-18T08:07:18;20.50;99.90
14140;DHT22;7150;53.514;9.988;2023-09-18T08:09:44;20.60;99.90
14140;DHT22;7150;53.514;9.988;2023-09-18T08:12:09;20.60;99.90
14140;DHT22;7150;53.514;9.988;2023-09-18T08:14:36;20.60;99.90
14140;DHT22;7150;53.514;9.988;2023-09-18T08:17:02;20.60;99.90
14140;DHT22;7150;53.514;9.988;2023-09-18T08:19:31;20.60;99.90
14140;DHT22;7150;53.514;9.988;2023-09-18T08:22:00;20.70;99.90
14140;DHT22;7150;53.514;9.988;2023-09-18T08:24:26;20.70;99.90
14140;DHT22;7150;53.514;9.988;2023-09-18T08:26:52;20.70;99.90
14140;DHT22;7150;53.514;9.988;2023-09-18T08:29:18;20.70;99.90
14140;DHT22;7150;53.514;9.988;2023-09-18T08:31:43;20.70;99.90
14140;DHT22;7150;53.514;9.988;2023-09-18T08:34:09;20.70;99.90
14140;DHT22;7150;53.514;9.988;2023-09-18T08:36:35;20.70;99.90
14140;DHT22;7150;53.514;9.988;2023-09-18T08:39:00;20.70;99.90
14140;DHT22;7150;53.514;9.988;2023-09-18T08:41:28;20.70;99.90
14140;DHT22;7150;53.514;9.988;2023-09-18T08:44:00;20.80;99.90
14140;DHT22;7150;53.514;9.988;2023-09-18T08:46:26;20.80;99.90
14140;DHT22;7150;53.514;9.988;2023-09-18T08:48:52;20.80;99.90
14140;DHT22;7150;53.514;9.988;2023-09-18T08:51:19;20.80;99.90
14140;DHT22;7150;53.514;9.988;2023-09-18T08:53:45;20.80;99.90
14140;DHT22;7150;53.514;9.988;2023-09-18T08:56:12;20.80;99.90
14140;DHT22;7150;53.514;9.988;2023-09-18T08:58:39;20.80;99.90
14140;DHT22;7150;53.514;9.988;2023-09-18T09:01:10;20.80;99.90
14140;DHT22;7150;53.514;9.988;2023-09-18T09:03:37;20.80;99.90
14140;DHT22;7150;53.514;9.988;2023-09-18T09:06:04;20.90;99.90
14140;DHT22;7150;53.514;9.988;2023-09-18T09:08:31;21.00;99.90
14140;DHT22;7150;53.514;9.988;2023-09-18T09:10:56;20.90;99.90
14140;DHT22;7150;53.514;9.988;2023-09-18T09:13:24;20.90;99.90
14140;DHT22;7150;53.514;9.988;2023-09-18T09:15:53;20.90;99.90
14140;DHT22;7150;53.514;9.988;2023-09-18T09:18:22;21.00;99.90
14140;DHT22;7150;53.514;9.988;2023-09-18T09:20:59;20.90;99.90
14140;DHT22;7150;53.514;9.988;2023-09-18T09:23:29;21.00;99.90
14140;DHT22;7150;53.514;9.988;2023-09-18T09:26:16;21.00;99.90
14140;DHT22;7150;53.514;9.988;2023-09-18T09:28:43;21.10;99.90
14140;DHT22;7150;53.514;9.988;2023-09-18T09:31:09;21.10;99.90
14140;DHT22;7150;53.514;9.988;2023-09-18T09:33:36;21.20;99.90
14140;DHT22;7150;53.514;9.988;2023-09-18T09:36:05;21.20;99.90
14140;DHT22;7150;53.514;9.988;2023-09-18T09:38:32;21.30;99.90
14140;DHT22;7150;53.514;9.988;2023-09-18T09:41:02;21.40;99.90
14140;DHT22;7150;53.514;9.988;2023-09-18T09:43:32;21.40;99.90
14140;DHT22;7150;53.514;9.988;2023-09-18T09:45:59;21.40;99.90
14140;DHT22;7150;53.514;9.988;2023-09-18T09:48:25;21.50;99.90
14140;DHT22;7150;53.514;9.988;2023-09-18T09:50:51;21.50;99.90
14140;DHT22;7150;53.514;9.988;2023-09-18T09:53:18;21.60;99.90
14140;DHT22;7150;53.514;9.988;2023-09-18T09:55:44;21.60;99.90
14140;DHT22;7150;53.514;9.988;2023-09-18T09:58:11;21.70;99.90
14140;DHT22;7150;53.514;9.988;2023-09-18T10:00:52;21.70;99.90
14140;DHT22;7150;53.514;9.988;2023-09-18T10:03:20;21.70;99.90
14140;DHT22;7150;53.514;9.988;2023-09-18T10:05:47;21.80;99.90
14140;DHT22;7150;53.514;9.988;2023-09-18T10:08:18;21.80;99.90
14140;DHT22;7150;53.514;9.988;2023-09-18T10:10:52;21.80;99.90
14140;DHT22;7150;53.514;9.988;2023-09-18T10:13:23;21.90;99.90
14140;DHT22;7150;53.514;9.988;2023-09-18T10:15:52;21.90;99.90
14140;DHT22;7150;53.514;9.988;2023-09-18T10:18:26;21.90;99.90
14140;DHT22;7150;53.514;9.988;2023-09-18T10:21:07;22.00;99.90
14140;DHT22;7150;53.514;9.988;2023-09-18T10:23:53;22.10;99.90
14140;DHT22;7150;53.514;9.988;2023-09-18T10:26:25;22.00;99.90
14140;DHT22;7150;53.514;9.988;2023-09-18T10:28:55;22.00;99.90
14140;DHT22;7150;53.514;9.988;2023-09-18T10:31:25;22.10;99.90
14140;DHT22;7150;53.514;9.988;2023-09-18T10:33:52;22.10;99.90
14140;DHT22;7150;53.514;9.988;2023-09-18T10:36:19;22.10;99.90
14140;DHT22;7150;53.514;9.988;2023-09-18T10:38:46;22.10;99.90
14140;DHT22;7150;53.514;9.988;2023-09-18T10:41:16;22.20;99.90
14140;DHT22;7150;53.514;9.988;2023-09-18T10:43:45;22.20;99.90
14140;DHT22;7150;53.514;9.988;2023-09-18T10:46:11;22.20;99.90
14140;DHT22;7150;53.514;9.988;2023-09-18T10:48:41;22.20;99.90
14140;DHT22;7150;53.514;9.988;2023-09-18T10:51:08;22.30;99.90
14140;DHT22;7150;53.514;9.988;2023-09-18T10:53:34;22.30;99.90
14140;DHT22;7150;53.514;9.988;2023-09-18T10:56:01;22.30;99.90
14140;DHT22;7150;53.514;9.988;2023-09-18T10:58:27;22.30;99.90
14140;DHT22;7150;53.514;9.988;2023-09-18T11:00:54;22.40;99.90
14140;DHT22;7150;53.514;9.988;2023-09-18T11:03:22;22.40;99.90
14140;DHT22;7150;53.514;9.988;2023-09-18T11:05:49;22.50;99.90
14140;DHT22;7150;53.514;9.988;2023-09-18T11:08:28;22.50;99.90
14140;DHT22;7150;53.514;9.988;2023-09-18T11:13:50;22.60;99.90
14140;DHT22;7150;53.514;9.988;2023-09-18T11:21:33;22.70;99.90
14140;DHT22;7150;53.514;9.988;2023-09-18T11:24:01;22.70;99.90
14140;DHT22;7150;53.514;9.988;2023-09-18T11:26:34;22.70;99.90
14140;DHT22;7150;53.514;9.988;2023-09-18T11:29:08;22.70;99.90
14140;DHT22;7150;53.514;9.988;2023-09-18T11:31:51;22.70;99.90
14140;DHT22;7150;53.514;9.988;2023-09-18T11:34:29;22.70;99.90
14140;DHT22;7150;53.514;9.988;2023-09-18T11:37:00;22.70;99.90
14140;DHT22;7150;53.514;9.988;2023-09-18T11:39:39;22.70;99.90
14140;DHT22;7150;53.514;9.988;2023-09-18T11:42:10;22.70;99.90
14140;DHT22;7150;53.514;9.988;2023-09-18T11:44:37;22.70;99.90
14140;DHT22;7150;53.514;9.988;2023-09-18T11:47:08;22.70;99.90
14140;DHT22;7150;53.514;9.988;2023-09-18T11:49:38;22.80;99.90
14140;DHT22;7150;53.514;9.988;2023-09-18T11:52:08;22.80;99.90
14140;DHT22;7150;53.514;9.988;2023-09-18T11:54:34;22.80;99.90
14140;DHT22;7150;53.514;9.988;2023-09-18T11:57:04;22.80;99.90
14140;DHT22;7150;53.514;9.988;2023-09-18T11:59:37;22.80;99.90
14140;DHT22;7150;53.514;9.988;2023-09-18T12:02:03;22.90;99.90
14140;DHT22;7150;53.514;9.988;2023-09-18T12:04:31;22.80;99.90
14140;DHT22;7150;53.514;9.988;2023-09-18T12:06:58;22.80;99.90
14140;DHT22;7150;53.514;9.988;2023-09-18T12:09:27;22.90;99.90
14140;DHT22;7150;53.514;9.988;2023-09-18T12:11:52;22.90;99.90
14140;DHT22;7150;53.514;9.988;2023-09-18T12:14:20;22.90;99.90
14140;DHT22;7150;53.514;9.988;2023-09-18T12:16:46;22.90;99.90
14140;DHT22;7150;53.514;9.988;2023-09-18T12:19:18;22.90;99.90
14140;DHT22;7150;53.514;9.988;2023-09-18T12:21:46;22.90;99.90
14140;DHT22;7150;53.514;9.988;2023-09-18T12:24:22;22.90;99.90
14140;DHT22;7150;53.514;9.988;2023-09-18T12:26:49;22.90;99.90
14140;DHT22;7150;53.514;9.988;2023-09-18T12:29:14;22.90;99.90
14140;DHT22;7150;53.514;9.988;2023-09-18T12:31:40;23.00;99.90
14140;DHT22;7150;53.514;9.988;2023-09-18T12:34:20;23.00;99.90
14140;DHT22;7150;53.514;9.988;2023-09-18T12:36:47;23.00;99.90
14140;DHT22;7150;53.514;9.988;2023-09-18T12:39:13;23.10;99.90
14140;DHT22;7150;53.514;9.988;2023-09-18T12:41:45;23.00;99.90
14140;DHT22;7150;53.514;9.988;2023-09-18T12:44:12;23.00;99.90
14140;DHT22;7150;53.514;9.988;2023-09-18T12:46:38;23.10;99.90
14140;DHT22;7150;53.514;9.988;2023-09-18T12:49:23;23.10;99.90
14140;DHT22;7150;53.514;9.988;2023-09-18T12:51:57;23.10;99.90
14140;DHT22;7150;53.514;9.988;2023-09-18T12:54:43;23.10;99.90
14140;DHT22;7150;53.514;9.988;2023-09-18T12:57:14;23.20;99.90
14140;DHT22;7150;53.514;9.988;2023-09-18T12:59:40;23.20;99.90
14140;DHT22;7150;53.514;9.988;2023-09-18T13:02:06;23.20;99.90
14140;DHT22;7150;53.514;9.988;2023-09-18T13:04:33;23.20;99.90
14140;DHT22;7150;53.514;9.988;2023-09-18T13:07:12;23.20;99.90
14140;DHT22;7150;53.514;9.988;2023-09-18T13:09:39;23.20;99.90
14140;DHT22;7150;53.514;9.988;2023-09-18T13:12:06;23.30;99.90
14140;DHT22;7150;53.514;9.988;2023-09-18T13:15:00;23.20;99.90
14140;DHT22;7150;53.514;9.988;2023-09-18T13:17:38;23.40;99.90
14140;DHT22;7150;53.514;9.988;2023-09-18T13:20:12;23.30;99.90
14140;DHT22;7150;53.514;9.988;2023-09-18T13:22:39;23.30;99.90
14140;DHT22;7150;53.514;9.988;2023-09-18T13:25:06;23.40;99.90
14140;DHT22;7150;53.514;9.988;2023-09-18T13:27:32;23.40;99.90
14140;DHT22;7150;53.514;9.988;2023-09-18T13:29:58;23.40;99.90
14140;DHT22;7150;53.514;9.988;2023-09-18T13:32:33;23.30;99.90
14140;DHT22;7150;53.514;9.988;2023-09-18T13:34:59;23.40;99.90
14140;DHT22;7150;53.514;9.988;2023-09-18T13:37:24;23.30;99.90
14140;DHT22;7150;53.514;9.988;2023-09-18T13:39:51;23.40;99.90
14140;DHT22;7150;53.514;9.988;2023-09-18T13:42:17;23.40;99.90
14140;DHT22;7150;53.514;9.988;2023-09-18T13:44:42;23.30;99.90
14140;DHT22;7150;53.514;9.988;2023-09-18T13:47:08;23.30;99.90
14140;DHT22;7150;53.514;9.988;2023-09-18T13:49:33;23.30;99.90
14140;DHT22;7150;53.514;9.988;2023-09-18T13:51:59;23.30;99.90
14140;DHT22;7150;53.514;9.988;2023-09-18T13:54:25;23.30;99.90
14140;DHT22;7150;53.514;9.988;2023-09-18T13:56:51;23.20;99.90
14140;DHT22;7150;53.514;9.988;2023-09-18T13:59:16;23.20;99.90
14140;DHT22;7150;53.514;9.988;2023-09-18T14:01:42;23.20;99.90
14140;DHT22;7150;53.514;9.988;2023-09-18T14:04:07;23.20;99.90
14140;DHT22;7150;53.514;9.988;2023-09-18T14:06:33;23.30;99.90
14140;DHT22;7150;53.514;9.988;2023-09-18T14:08:58;23.10;99.90
14140;DHT22;7150;53.514;9.988;2023-09-18T14:11:24;23.10;99.90
14140;DHT22;7150;53.514;9.988;2023-09-18T14:13:49;23.20;99.90
14140;DHT22;7150;53.514;9.988;2023-09-18T14:16:15;23.10;99.90
14140;DHT22;7150;53.514;9.988;2023-09-18T14:18:40;23.10;99.90
14140;DHT22;7150;53.514;9.988;2023-09-18T14:21:06;23.10;99.90
14140;DHT22;7150;53.514;9.988;2023-09-18T14:23:32;23.00;99.90
14140;DHT22;7150;53.514;9.988;2023-09-18T14:25:59;23.10;99.90
14140;DHT22;7150;53.514;9.988;2023-09-18T14:28:26;23.10;99.90
14140;DHT22;7150;53.514;9.988;2023-09-18T14:30:51;23.00;99.90
14140;DHT22;7150;53.514;9.988;2023-09-18T14:33:17;23.10;99.90
14140;DHT22;7150;53.514;9.988;2023-09-18T14:35:42;23.10;99.90
14140;DHT22;7150;53.514;9.988;2023-09-18T14:38:07;23.10;99.90
14140;DHT22;7150;53.514;9.988;2023-09-18T14:40:33;23.20;99.90
14140;DHT22;7150;53.514;9.988;2023-09-18T14:42:59;23.20;99.90
14140;DHT22;7150;53.514;9.988;2023-09-18T14:45:24;23.20;99.90
14140;DHT22;7150;53.514;9.988;2023-09-18T14:47:50;23.30;99.90
14140;DHT22;7150;53.514;9.988;2023-09-18T14:50:16;23.30;99.90
14140;DHT22;7150;53.514;9.988;2023-09-18T14:52:41;23.30;99.90
14140;DHT22;7150;53.514;9.988;2023-09-18T14:55:07;23.30;99.90
14140;DHT22;7150;53.514;9.988;2023-09-18T14:57:32;23.30;99.90
14140;DHT22;7150;53.514;9.988;2023-09-18T14:59:58;23.30;99.90
14140;DHT22;7150;53.514;9.988;2023-09-18T15:02:23;23.30;99.90
14140;DHT22;7150;53.514;9.988;2023-09-18T15:04:54;23.30;99.90
14140;DHT22;7150;53.514;9.988;2023-09-18T15:07:20;23.30;99.90
14140;DHT22;7150;53.514;9.988;2023-09-18T15:09:45;23.30;99.90
14140;DHT22;7150;53.514;9.988;2023-09-18T15:12:11;23.30;99.90
14140;DHT22;7150;53.514;9.988;2023-09-18T15:14:37;23.30;99.90
14140;DHT22;7150;53.514;9.988;2023-09-18T15:17:02;23.30;99.90
14140;DHT22;7150;53.514;9.988;2023-09-18T15:19:28;23.30;99.90
14140;DHT22;7150;53.514;9.988;2023-09-18T15:21:54;23.30;99.90
14140;DHT22;7150;53.514;9.988;2023-09-18T15:24:21;23.30;99.90
14140;DHT22;7150;53.514;9.988;2023-09-18T15:26:46;23.30;99.90
14140;DHT22;7150;53.514;9.988;2023-09-18T15:29:13;23.30;99.90
14140;DHT22;7150;53.514;9.988;2023-09-18T15:31:38;23.30;99.90
14140;DHT22;7150;53.514;9.988;2023-09-18T15:34:06;23.30;99.90
14140;DHT22;7150;53.514;9.988;2023-09-18T15:36:32;23.30;99.90
14140;DHT22;7150;53.514;9.988;2023-09-18T15:38:57;23.20;99.90
14140;DHT22;7150;53.514;9.988;2023-09-18T15:41:24;23.30;99.90
14140;DHT22;7150;53.514;9.988;2023-09-18T15:43:49;23.30;99.90
14140;DHT22;7150;53.514;9.988;2023-09-18T15:46:15;23.30;99.90
14140;DHT22;7150;53.514;9.988;2023-09-18T15:48:43;23.30;99.90
14140;DHT22;7150;53.514;9.988;2023-09-18T15:51:09;23.20;99.90
14140;DHT22;7150;53.514;9.988;2023-09-18T15:53:35;23.50;99.90
14140;DHT22;7150;53.514;9.988;2023-09-18T15:56:01;23.30;99.90